createdAt,value
2023-03-02T00:01:46.860Z,1.00
2023-03-02T00:04:31.557Z,1.00
2023-03-02T00:07:02.852Z,1.00
2023-03-02T00:09:30.582Z,1.00
2023-03-02T00:11:58.294Z,1.00
2023-03-02T00:14:25.617Z,1.00
2023-03-02T00:16:52.868Z,1.00
2023-03-02T00:19:20.062Z,1.00
2023-03-02T00:21:47.263Z,1.00
2023-03-02T00:24:17.374Z,1.00
2023-03-02T00:26:44.526Z,1.00
2023-03-02T00:29:12.784Z,1.00
2023-03-02T00:31:40.088Z,1.00
2023-03-02T00:34:07.463Z,0.90
2023-03-02T00:36:34.697Z,1.00
2023-03-02T00:39:01.939Z,0.90
2023-03-02T00:41:32.642Z,0.90
2023-03-02T00:43:59.839Z,0.90
2023-03-02T00:46:28.467Z,1.00
2023-03-02T00:48:56.708Z,0.90
2023-03-02T00:51:24.977Z,0.90
2023-03-02T00:53:52.659Z,0.90
2023-03-02T00:56:19.908Z,0.90
2023-03-02T00:58:50.297Z,0.90
2023-03-02T01:01:18.762Z,0.90
2023-03-02T01:03:49.433Z,0.90
2023-03-02T01:06:20.982Z,0.90
2023-03-02T01:08:48.618Z,0.80
2023-03-02T01:11:21.469Z,0.80
2023-03-02T01:13:50.172Z,0.80
2023-03-02T01:16:17.645Z,0.80
2023-03-02T01:18:44.932Z,0.80
2023-03-02T01:21:14.559Z,0.80
2023-03-02T01:23:42.605Z,0.80
2023-03-02T01:26:10.518Z,0.70
2023-03-02T01:28:37.697Z,0.80
2023-03-02T01:31:05.374Z,0.70
2023-03-02T01:33:32.971Z,0.70
2023-03-02T01:36:00.430Z,0.70
2023-03-02T01:38:28.911Z,0.70
2023-03-02T01:40:56.205Z,0.70
2023-03-02T01:43:23.693Z,0.70
2023-03-02T01:46:01.786Z,0.70
2023-03-02T01:48:42.185Z,0.70
2023-03-02T01:51:14.803Z,0.60
2023-03-02T01:53:48.731Z,0.60
2023-03-02T01:56:18.583Z,0.60
2023-03-02T01:58:49.643Z,0.60
2023-03-02T02:01:17.649Z,0.50
2023-03-02T02:03:48.558Z,0.50
2023-03-02T02:06:39.537Z,0.50
2023-03-02T02:09:13.200Z,0.50
2023-03-02T02:11:45.862Z,0.50
2023-03-02T02:14:13.917Z,0.50
2023-03-02T02:16:41.705Z,0.50
2023-03-02T02:19:37.181Z,0.50
2023-03-02T02:22:04.606Z,0.50
2023-03-02T02:24:55.305Z,0.50
2023-03-02T02:27:33.461Z,0.40
2023-03-02T02:30:04.306Z,0.50
2023-03-02T02:32:37.107Z,0.40
2023-03-02T02:35:14.447Z,0.50
2023-03-02T02:37:47.491Z,0.50
2023-03-02T02:40:22.934Z,0.40
2023-03-02T02:42:52.540Z,0.40
2023-03-02T02:45:27.729Z,0.40
2023-03-02T02:47:56.266Z,0.30
2023-03-02T02:50:32.690Z,0.30
2023-03-02T02:53:05.543Z,0.30
2023-03-02T02:55:35.556Z,0.30
2023-03-02T02:58:09.848Z,0.20
2023-03-02T03:00:38.098Z,0.20
2023-03-02T03:03:28.975Z,0.10
2023-03-02T03:06:00.261Z,0.10
2023-03-02T03:08:45.703Z,0.10
2023-03-02T03:11:27.795Z,0.10
2023-03-02T03:14:17.470Z,0.10
2023-03-02T03:16:48.930Z,0.10
2023-03-02T03:19:21.009Z,0.10
2023-03-02T03:21:51.313Z,0.20
2023-03-02T03:24:19.500Z,0.10
2023-03-02T03:26:48.003Z,0.10
2023-03-02T03:29:18.052Z,0.10
2023-03-02T03:31:46.082Z,0.10
2023-03-02T03:34:14.160Z,0.10
2023-03-02T03:36:43.328Z,0.00
2023-03-02T03:39:12.027Z,0.10
2023-03-02T03:41:40.483Z,0.00
2023-03-02T03:44:09.529Z,-0.10
2023-03-02T03:46:38.235Z,-0.10
2023-03-02T03:49:05.779Z,0.00
2023-03-02T03:51:35.129Z,-0.10
2023-03-02T03:54:07.916Z,-0.10
2023-03-02T03:56:42.781Z,0.00
2023-03-02T03:59:13.631Z,0.00
2023-03-02T04:01:52.640Z,0.00
2023-03-02T04:04:26.753Z,0.00
2023-03-02T04:06:54.733Z,0.00
2023-03-02T04:09:22.978Z,0.00
2023-03-02T04:11:53.606Z,0.00
2023-03-02T04:14:23.184Z,0.00
2023-03-02T04:16:52.155Z,-0.10
2023-03-02T04:19:21.492Z,-0.10
2023-03-02T04:21:54.161Z,-0.10
2023-03-02T04:24:23.423Z,0.00
2023-03-02T04:26:52.371Z,-0.10
2023-03-02T04:29:20.495Z,0.00
2023-03-02T04:31:48.394Z,0.00
2023-03-02T04:34:16.542Z,0.00
2023-03-02T04:36:46.426Z,0.00
2023-03-02T04:39:16.950Z,0.00
2023-03-02T04:41:48.713Z,0.00
2023-03-02T04:44:16.987Z,0.00
2023-03-02T04:46:45.594Z,0.10
2023-03-02T04:49:14.816Z,0.10
2023-03-02T04:51:45.060Z,0.10
2023-03-02T04:54:19.457Z,0.10
2023-03-02T04:56:49.524Z,0.10
2023-03-02T04:59:17.910Z,0.10
2023-03-02T05:01:48.510Z,0.10
2023-03-02T05:04:16.164Z,0.10
2023-03-02T05:06:43.738Z,0.10
2023-03-02T05:09:11.290Z,0.10
2023-03-02T05:11:39.075Z,0.10
2023-03-02T05:14:09.272Z,0.10
2023-03-02T05:16:38.605Z,0.10
2023-03-02T05:19:07.969Z,0.10
2023-03-02T05:21:35.762Z,0.20
2023-03-02T05:24:03.255Z,0.10
2023-03-02T05:26:32.351Z,0.10
2023-03-02T05:28:59.905Z,0.10
2023-03-02T05:31:34.898Z,0.10
2023-03-02T05:34:05.268Z,0.10
2023-03-02T05:36:33.176Z,0.10
2023-03-02T05:39:00.640Z,0.10
2023-03-02T05:41:27.985Z,0.10
2023-03-02T05:43:55.200Z,0.10
2023-03-02T05:46:23.121Z,0.10
2023-03-02T05:48:50.321Z,0.10
2023-03-02T05:51:17.474Z,0.10
2023-03-02T05:53:44.623Z,0.10
2023-03-02T05:56:11.831Z,0.10
2023-03-02T05:58:39.072Z,0.10
2023-03-02T06:01:14.777Z,0.20
2023-03-02T06:03:43.363Z,0.20
2023-03-02T06:06:13.858Z,0.20
2023-03-02T06:08:42.556Z,0.20
2023-03-02T06:11:10.575Z,0.20
2023-03-02T06:13:37.884Z,0.20
2023-03-02T06:16:05.422Z,0.20
2023-03-02T06:18:32.970Z,0.20
2023-03-02T06:21:00.308Z,0.30
2023-03-02T06:23:27.779Z,0.30
2023-03-02T06:25:55.576Z,0.30
2023-03-02T06:28:24.587Z,0.30
2023-03-02T06:30:52.441Z,0.30
2023-03-02T06:33:21.224Z,0.30
2023-03-02T06:35:49.106Z,0.40
2023-03-02T06:38:16.555Z,0.40
2023-03-02T06:40:44.842Z,0.40
2023-03-02T06:43:12.085Z,0.40
2023-03-02T06:45:39.828Z,0.40
2023-03-02T06:48:08.289Z,0.50
2023-03-02T06:50:36.094Z,0.50
2023-03-02T06:53:03.294Z,0.60
2023-03-02T06:55:30.494Z,0.60
2023-03-02T06:57:57.983Z,0.60
2023-03-02T07:00:27.778Z,0.60
2023-03-02T07:02:56.339Z,0.70
2023-03-02T07:05:24.456Z,0.70
2023-03-02T07:07:52.345Z,0.70
2023-03-02T07:10:19.965Z,0.80
2023-03-02T07:12:47.153Z,0.80
2023-03-02T07:15:14.716Z,0.90
2023-03-02T07:17:44.296Z,1.00
2023-03-02T07:20:17.533Z,1.00
2023-03-02T07:22:45.389Z,1.10
2023-03-02T07:25:13.205Z,1.10
2023-03-02T07:27:40.966Z,1.10
2023-03-02T07:30:09.350Z,1.10
2023-03-02T07:32:36.740Z,1.20
2023-03-02T07:35:04.151Z,1.20
2023-03-02T07:37:32.456Z,1.30
2023-03-02T07:40:00.829Z,1.40
2023-03-02T07:42:28.257Z,1.40
2023-03-02T07:44:58.290Z,1.40
2023-03-02T07:47:25.740Z,1.60
2023-03-02T07:49:55.961Z,1.60
2023-03-02T07:52:23.393Z,1.70
2023-03-02T07:54:51.346Z,1.80
2023-03-02T07:57:18.538Z,1.70
2023-03-02T07:59:45.762Z,1.70
2023-03-02T08:02:15.823Z,1.80
2023-03-02T08:04:43.641Z,1.90
2023-03-02T08:07:10.960Z,2.00
2023-03-02T08:09:40.307Z,2.10
2023-03-02T08:12:07.563Z,2.20
2023-03-02T08:14:34.808Z,2.30
2023-03-02T08:17:03.535Z,2.30
2023-03-02T08:19:30.781Z,2.20
2023-03-02T08:21:58.494Z,2.00
2023-03-02T08:24:25.669Z,2.10
2023-03-02T08:26:52.893Z,2.20
2023-03-02T08:29:20.135Z,2.30
2023-03-02T08:31:47.773Z,2.30
2023-03-02T08:34:14.964Z,2.40
2023-03-02T08:36:43.649Z,2.40
2023-03-02T08:39:11.217Z,2.50
2023-03-02T08:41:38.475Z,2.70
2023-03-02T08:44:05.782Z,2.80
2023-03-02T08:46:33.520Z,2.90
2023-03-02T08:49:00.934Z,3.00
2023-03-02T08:51:29.180Z,3.10
2023-03-02T08:53:56.507Z,3.30
2023-03-02T08:56:28.081Z,3.30
2023-03-02T08:58:58.224Z,3.40
2023-03-02T09:01:29.820Z,3.50
2023-03-02T09:03:59.684Z,3.60
2023-03-02T09:06:31.904Z,3.70
2023-03-02T09:08:59.138Z,3.70
2023-03-02T09:11:26.791Z,3.80
2023-03-02T09:14:18.844Z,3.80
2023-03-02T09:16:46.944Z,3.80
2023-03-02T09:19:14.760Z,3.80
2023-03-02T09:21:41.994Z,3.60
2023-03-02T09:24:09.284Z,3.90
2023-03-02T09:26:38.163Z,4.00
2023-03-02T09:29:07.070Z,4.10
2023-03-02T09:31:35.633Z,4.10
2023-03-02T09:34:04.254Z,3.80
2023-03-02T09:36:32.601Z,3.90
2023-03-02T09:38:59.873Z,4.10
2023-03-02T09:42:07.723Z,4.00
2023-03-02T09:45:12.426Z,4.10
2023-03-02T09:48:37.425Z,4.40
2023-03-02T09:51:16.579Z,4.70
2023-03-02T09:53:52.167Z,4.90
2023-03-02T09:56:20.990Z,4.90
2023-03-02T09:58:55.671Z,4.80
2023-03-02T10:01:36.671Z,4.80
2023-03-02T10:04:18.604Z,4.80
2023-03-02T10:06:46.596Z,4.80
2023-03-02T10:09:14.486Z,4.90
2023-03-02T10:12:21.952Z,5.00
2023-03-02T10:15:06.090Z,4.90
2023-03-02T10:17:46.089Z,5.00
2023-03-02T10:20:36.728Z,5.00
2023-03-02T10:23:37.645Z,5.20
2023-03-02T10:26:23.170Z,5.40
2023-03-02T10:28:57.820Z,5.30
2023-03-02T10:31:29.981Z,5.40
2023-03-02T10:33:58.282Z,5.50
2023-03-02T10:36:28.816Z,5.60
2023-03-02T10:38:57.821Z,5.70
2023-03-02T10:41:32.891Z,5.80
2023-03-02T10:44:40.434Z,5.90
2023-03-02T10:47:08.477Z,5.90
2023-03-02T10:49:41.306Z,6.10
2023-03-02T10:52:18.732Z,6.10
2023-03-02T10:54:47.384Z,6.10
2023-03-02T10:57:34.590Z,6.10
2023-03-02T11:00:21.598Z,6.10
2023-03-02T11:02:54.912Z,5.70
2023-03-02T11:05:54.111Z,5.50
2023-03-02T11:08:27.254Z,5.60
2023-03-02T11:10:59.846Z,5.70
2023-03-02T11:13:33.938Z,5.80
2023-03-02T11:16:02.229Z,6.00
2023-03-02T11:18:37.350Z,6.00
2023-03-02T11:21:11.592Z,5.90
2023-03-02T11:23:57.669Z,6.00
2023-03-02T11:26:28.487Z,6.00
2023-03-02T11:29:00.564Z,6.10
2023-03-02T11:31:47.217Z,6.10
2023-03-02T11:34:27.480Z,6.00
2023-03-02T11:37:38.181Z,6.10
2023-03-02T11:40:51.103Z,6.10
2023-03-02T11:43:18.371Z,6.10
2023-03-02T11:45:48.396Z,6.20
2023-03-02T11:48:26.559Z,6.20
2023-03-02T11:51:04.306Z,6.20
2023-03-02T11:53:52.904Z,6.20
2023-03-02T11:56:21.533Z,6.10
2023-03-02T11:58:56.143Z,6.20
2023-03-02T12:01:26.175Z,6.10
2023-03-02T12:03:54.742Z,6.10
2023-03-02T12:06:22.234Z,6.20
2023-03-02T12:08:52.749Z,6.40
2023-03-02T12:11:19.914Z,6.40
2023-03-02T12:14:00.278Z,6.40
2023-03-02T12:16:40.805Z,6.40
2023-03-02T12:19:17.225Z,6.50
2023-03-02T12:22:00.567Z,6.60
2023-03-02T12:24:34.068Z,6.40
2023-03-02T12:27:25.977Z,6.40
2023-03-02T12:30:24.524Z,6.40
2023-03-02T12:33:10.575Z,6.10
2023-03-02T12:35:38.732Z,6.20
2023-03-02T12:38:30.809Z,6.20
2023-03-02T12:41:18.156Z,6.20
2023-03-02T12:44:34.988Z,6.10
2023-03-02T12:47:04.025Z,5.90
2023-03-02T12:49:53.376Z,5.90
2023-03-02T12:52:36.378Z,5.90
2023-03-02T12:55:16.909Z,5.80
2023-03-02T12:57:53.957Z,5.80
2023-03-02T13:00:33.787Z,5.80
2023-03-02T13:03:09.608Z,5.80
2023-03-02T13:05:37.290Z,5.80
2023-03-02T13:08:29.089Z,5.80
2023-03-02T13:10:59.731Z,5.70
2023-03-02T13:13:38.133Z,5.70
2023-03-02T13:16:22.111Z,5.60
2023-03-02T13:18:55.283Z,5.70
2023-03-02T13:21:32.418Z,5.70
2023-03-02T13:24:01.267Z,5.70
2023-03-02T13:26:35.988Z,5.80
2023-03-02T13:29:14.579Z,5.80
2023-03-02T13:31:42.717Z,5.80
2023-03-02T13:34:25.718Z,5.80
2023-03-02T13:36:53.794Z,5.60
2023-03-02T13:39:25.445Z,5.50
2023-03-02T13:41:59.025Z,5.60
2023-03-02T13:44:34.739Z,5.70
2023-03-02T13:47:02.647Z,5.90
2023-03-02T13:49:35.693Z,6.10
2023-03-02T13:52:27.468Z,6.00
2023-03-02T13:54:54.940Z,6.00
2023-03-02T13:57:30.370Z,5.90
2023-03-02T13:59:59.416Z,5.90
2023-03-02T14:02:28.390Z,5.90
2023-03-02T14:04:56.509Z,5.80
2023-03-02T14:07:23.791Z,5.60
2023-03-02T14:09:51.598Z,5.30
2023-03-02T14:12:29.321Z,5.30
2023-03-02T14:14:59.324Z,5.50
2023-03-02T14:17:27.230Z,5.50
2023-03-02T14:19:55.257Z,5.60
2023-03-02T14:22:48.603Z,5.50
2023-03-02T14:25:16.080Z,5.50
2023-03-02T14:27:44.348Z,5.30
2023-03-02T14:30:20.485Z,5.30
2023-03-02T14:32:48.172Z,5.40
2023-03-02T14:35:16.786Z,5.40
2023-03-02T14:37:48.061Z,5.10
2023-03-02T14:40:18.520Z,5.10
2023-03-02T14:42:46.468Z,5.10
2023-03-02T14:45:13.960Z,5.10
2023-03-02T14:47:41.183Z,5.00
2023-03-02T14:50:09.728Z,5.00
2023-03-02T14:52:48.020Z,5.00
2023-03-02T14:55:25.769Z,4.90
2023-03-02T14:57:57.273Z,4.90
2023-03-02T15:00:25.940Z,4.90
2023-03-02T15:02:53.332Z,4.70
2023-03-02T15:05:20.795Z,4.60
2023-03-02T15:07:49.256Z,4.60
2023-03-02T15:10:19.350Z,4.60
2023-03-02T15:12:47.290Z,4.60
2023-03-02T15:15:15.263Z,4.60
2023-03-02T15:17:43.040Z,4.60
2023-03-02T15:20:16.793Z,4.70
2023-03-02T15:22:44.168Z,4.60
2023-03-02T15:25:11.693Z,4.60
2023-03-02T15:27:39.388Z,4.60
2023-03-02T15:30:07.213Z,4.60
2023-03-02T15:32:36.579Z,4.50
2023-03-02T15:35:04.567Z,4.50
2023-03-02T15:37:31.727Z,4.50
2023-03-02T15:39:59.272Z,4.50
2023-03-02T15:42:26.627Z,4.50
2023-03-02T15:44:53.890Z,4.50
2023-03-02T15:47:21.610Z,4.50
2023-03-02T15:49:48.766Z,4.40
2023-03-02T15:52:16.149Z,4.40
2023-03-02T15:54:43.677Z,4.40
2023-03-02T15:57:10.925Z,4.40
2023-03-02T15:59:38.452Z,4.30
2023-03-02T16:02:05.700Z,4.30
2023-03-02T16:04:33.680Z,4.20
2023-03-02T16:07:00.938Z,4.10
2023-03-02T16:09:28.944Z,4.10
2023-03-02T16:11:56.320Z,4.00
2023-03-02T16:14:23.958Z,4.00
2023-03-02T16:16:51.288Z,3.90
2023-03-02T16:19:19.599Z,3.90
2023-03-02T16:21:48.006Z,3.80
2023-03-02T16:24:16.881Z,3.70
2023-03-02T16:26:44.823Z,3.70
2023-03-02T16:29:13.613Z,3.70
2023-03-02T16:31:41.414Z,3.60
2023-03-02T16:34:09.963Z,3.60
2023-03-02T16:36:39.864Z,3.60
2023-03-02T16:39:08.842Z,3.60
2023-03-02T16:41:37.067Z,3.60
2023-03-02T16:44:05.107Z,3.50
2023-03-02T16:46:36.264Z,3.40
2023-03-02T16:49:04.779Z,3.40
2023-03-02T16:51:32.698Z,3.30
2023-03-02T16:53:59.997Z,3.30
2023-03-02T16:56:27.238Z,3.30
2023-03-02T16:58:55.599Z,3.20
2023-03-02T17:01:23.564Z,3.20
2023-03-02T17:03:51.776Z,3.20
2023-03-02T17:06:22.232Z,3.20
2023-03-02T17:08:50.896Z,3.20
2023-03-02T17:11:19.053Z,3.10
2023-03-02T17:13:46.530Z,3.10
2023-03-02T17:16:14.252Z,3.10
2023-03-02T17:18:41.665Z,3.00
2023-03-02T17:21:09.450Z,3.00
2023-03-02T17:23:36.954Z,3.00
2023-03-02T17:26:04.819Z,3.00
2023-03-02T17:28:32.058Z,3.00
2023-03-02T17:31:00.390Z,3.00
2023-03-02T17:33:29.416Z,2.90
2023-03-02T17:35:56.602Z,2.90
2023-03-02T17:38:23.859Z,2.90
2023-03-02T17:40:51.037Z,2.90
2023-03-02T17:43:18.313Z,2.90
2023-03-02T17:45:46.591Z,2.90
2023-03-02T17:48:13.817Z,2.90
2023-03-02T17:50:41.209Z,2.90
2023-03-02T17:53:08.412Z,2.90
2023-03-02T17:55:35.635Z,2.90
2023-03-02T17:58:02.818Z,2.90
2023-03-02T18:00:30.587Z,2.80
2023-03-02T18:02:57.881Z,2.80
2023-03-02T18:05:25.603Z,2.80
2023-03-02T18:07:54.428Z,2.80
2023-03-02T18:10:21.618Z,2.80
2023-03-02T18:12:51.667Z,2.80
2023-03-02T18:15:20.520Z,2.80
2023-03-02T18:17:48.042Z,2.80
2023-03-02T18:20:15.676Z,2.80
2023-03-02T18:22:42.850Z,2.80
2023-03-02T18:25:10.599Z,2.80
2023-03-02T18:27:37.859Z,2.80
2023-03-02T18:30:05.445Z,2.70
2023-03-02T18:32:32.714Z,2.70
2023-03-02T18:35:00.059Z,2.70
2023-03-02T18:37:27.449Z,2.70
2023-03-02T18:39:55.084Z,2.70
2023-03-02T18:42:22.457Z,2.70
2023-03-02T18:44:49.964Z,2.70
2023-03-02T18:47:18.025Z,2.70
2023-03-02T18:49:46.168Z,2.70
2023-03-02T18:52:14.815Z,2.60
2023-03-02T18:54:43.841Z,2.60
2023-03-02T18:57:11.010Z,2.50
2023-03-02T18:59:38.269Z,2.50
2023-03-02T19:02:08.108Z,2.50
2023-03-02T19:04:35.797Z,2.50
2023-03-02T19:07:03.808Z,2.40
2023-03-02T19:09:31.041Z,2.40
2023-03-02T19:11:58.279Z,2.30
2023-03-02T19:14:25.520Z,2.30
2023-03-02T19:16:52.818Z,2.30
2023-03-02T19:19:20.078Z,2.20
2023-03-02T19:21:47.815Z,2.20
2023-03-02T19:24:14.997Z,2.10
2023-03-02T19:26:42.213Z,1.90
2023-03-02T19:29:09.449Z,1.80
2023-03-02T19:31:40.368Z,1.60
2023-03-02T19:34:07.881Z,1.50
2023-03-02T19:36:35.043Z,1.40
2023-03-02T19:39:02.228Z,1.20
2023-03-02T19:41:29.431Z,1.10
2023-03-02T19:43:57.231Z,1.10
2023-03-02T19:46:24.557Z,1.00
2023-03-02T19:48:51.764Z,0.90
2023-03-02T19:51:19.532Z,1.00
2023-03-02T19:53:47.050Z,0.90
2023-03-02T19:56:15.212Z,0.80
2023-03-02T19:58:53.432Z,0.70
2023-03-02T20:01:22.188Z,0.60
2023-03-02T20:03:56.653Z,0.20
2023-03-02T20:06:33.250Z,0.10
2023-03-02T20:09:03.496Z,0.00
2023-03-02T20:11:31.261Z,-0.10
2023-03-02T20:14:02.261Z,-0.30
2023-03-02T20:16:32.079Z,-0.50
2023-03-02T20:19:01.839Z,-0.60
2023-03-02T20:21:30.817Z,-0.70
2023-03-02T20:23:58.105Z,-0.80
2023-03-02T20:26:26.773Z,-0.80
2023-03-02T20:28:55.940Z,-0.90
2023-03-02T20:31:25.260Z,-1.10
2023-03-02T20:33:54.913Z,-1.20
2023-03-02T20:36:27.878Z,-1.20
2023-03-02T20:38:59.625Z,-1.30
2023-03-02T20:41:27.300Z,-1.40
2023-03-02T20:43:54.753Z,-1.30
2023-03-02T20:46:27.792Z,-1.40
2023-03-02T20:48:55.698Z,-1.40
2023-03-02T20:51:23.325Z,-1.30
2023-03-02T20:53:50.544Z,-1.40
2023-03-02T20:56:18.459Z,-1.50
2023-03-02T20:58:47.741Z,-1.60
2023-03-02T21:01:16.320Z,-1.60
2023-03-02T21:03:44.813Z,-1.60
2023-03-02T21:06:13.529Z,-1.60
2023-03-02T21:08:42.443Z,-1.50
2023-03-02T21:11:13.036Z,-1.50
2023-03-02T21:13:40.326Z,-1.40
2023-03-02T21:16:09.338Z,-1.30
2023-03-02T21:18:37.152Z,-1.20
2023-03-02T21:21:04.614Z,-1.30
2023-03-02T21:23:31.794Z,-1.40
2023-03-02T21:25:59.675Z,-1.40
2023-03-02T21:28:27.628Z,-1.50
2023-03-02T21:30:54.889Z,-1.70
2023-03-02T21:33:22.102Z,-1.80
2023-03-02T21:35:49.856Z,-1.90
2023-03-02T21:38:17.037Z,-1.90
2023-03-02T21:40:45.885Z,-1.70
2023-03-02T21:43:14.468Z,-1.70
2023-03-02T21:45:41.860Z,-1.70
2023-03-02T21:48:09.089Z,-1.80
2023-03-02T21:50:38.198Z,-2.00
2023-03-02T21:53:06.604Z,-2.20
2023-03-02T21:55:34.609Z,-2.20
2023-03-02T21:58:02.144Z,-2.30
2023-03-02T22:00:32.840Z,-2.30
2023-03-02T22:03:01.610Z,-2.20
2023-03-02T22:05:30.330Z,-2.10
2023-03-02T22:07:57.626Z,-2.20
2023-03-02T22:10:41.364Z,-2.30
2023-03-02T22:13:27.090Z,-2.40
2023-03-02T22:16:05.672Z,-2.40
2023-03-02T22:18:32.838Z,-2.30
2023-03-02T22:21:00.882Z,-2.40
2023-03-02T22:23:28.480Z,-2.60
2023-03-02T22:26:08.250Z,-2.70
2023-03-02T22:28:40.570Z,-2.80
2023-03-02T22:31:18.205Z,-2.70
2023-03-02T22:33:45.450Z,-2.70
2023-03-02T22:36:22.579Z,-2.70
2023-03-02T22:38:50.441Z,-2.60
2023-03-02T22:41:19.336Z,-2.50
2023-03-02T22:43:47.149Z,-2.40
2023-03-02T22:46:17.433Z,-2.40
2023-03-02T22:48:47.374Z,-2.20
2023-03-02T22:51:20.777Z,-2.10
2023-03-02T22:53:59.821Z,-1.90
2023-03-02T22:56:30.664Z,-1.70
2023-03-02T22:59:22.412Z,-1.70
2023-03-02T23:01:50.624Z,-1.60
2023-03-02T23:04:23.104Z,-1.60
2023-03-02T23:06:53.334Z,-1.60
2023-03-02T23:09:26.438Z,-1.50
2023-03-02T23:12:25.635Z,-1.40
2023-03-02T23:14:57.985Z,-1.40
2023-03-02T23:17:30.806Z,-1.30
2023-03-02T23:19:58.170Z,-1.20
2023-03-02T23:22:28.421Z,-1.10
2023-03-02T23:24:56.781Z,-1.00
2023-03-02T23:27:24.980Z,-0.90
2023-03-02T23:29:52.528Z,-0.90
2023-03-02T23:32:20.317Z,-0.90
2023-03-02T23:34:47.618Z,-0.80
2023-03-02T23:37:14.937Z,-0.70
2023-03-02T23:39:43.826Z,-0.70
2023-03-02T23:42:13.359Z,-0.70
2023-03-02T23:44:40.645Z,-0.60
2023-03-02T23:47:07.901Z,-0.60
2023-03-02T23:49:35.095Z,-0.50
2023-03-02T23:52:03.480Z,-0.50
2023-03-02T23:54:30.789Z,-0.50
2023-03-02T23:56:57.958Z,-0.40
2023-03-02T23:59:25.654Z,-0.40
